createdAt,value
2022-07-28T00:00:06.263Z,3.45
2022-07-28T00:02:35.277Z,3.63
2022-07-28T00:05:01.914Z,4.25
2022-07-28T00:07:28.446Z,3.30
2022-07-28T00:10:00.180Z,3.40
2022-07-28T00:12:28.841Z,3.75
2022-07-28T00:14:55.434Z,4.30
2022-07-28T00:17:21.970Z,4.47
2022-07-28T00:19:48.847Z,3.72
2022-07-28T00:22:15.369Z,3.67
2022-07-28T00:24:42.260Z,3.60
2022-07-28T00:27:09.219Z,3.53
2022-07-28T00:29:49.864Z,3.80
2022-07-28T00:32:18.196Z,3.88
2022-07-28T00:34:45.780Z,4.93
2022-07-28T00:37:14.486Z,3.78
2022-07-28T00:39:41.704Z,4.10
2022-07-28T00:42:08.491Z,3.92
2022-07-28T00:44:35.020Z,3.70
2022-07-28T00:47:01.664Z,4.07
2022-07-28T00:49:28.952Z,3.80
2022-07-28T00:51:55.544Z,4.20
2022-07-28T00:54:22.190Z,3.85
2022-07-28T00:56:49.877Z,3.50
2022-07-28T00:59:16.396Z,4.25
2022-07-28T01:01:43.136Z,3.95
2022-07-28T01:04:09.721Z,4.10
2022-07-28T01:06:54.522Z,4.45
2022-07-28T01:09:58.442Z,3.78
2022-07-28T01:13:18.883Z,4.35
2022-07-28T01:16:11.145Z,3.92
2022-07-28T01:18:46.698Z,4.22
2022-07-28T01:21:17.901Z,4.05
2022-07-28T01:24:13.788Z,4.70
2022-07-28T01:26:51.288Z,4.13
2022-07-28T01:29:20.514Z,4.65
2022-07-28T01:31:56.323Z,3.63
2022-07-28T01:34:33.202Z,4.20
2022-07-28T01:37:07.265Z,4.55
2022-07-28T01:39:37.600Z,4.65
2022-07-28T01:42:07.348Z,4.22
2022-07-28T01:44:40.887Z,4.57
2022-07-28T01:47:09.286Z,4.32
2022-07-28T01:49:37.891Z,4.40
2022-07-28T01:52:07.174Z,4.15
2022-07-28T01:54:37.400Z,4.90
2022-07-28T01:57:05.539Z,4.97
2022-07-28T01:59:35.917Z,4.18
2022-07-28T02:02:03.338Z,4.65
2022-07-28T02:04:33.356Z,3.92
2022-07-28T02:07:02.600Z,5.10
2022-07-28T02:09:30.788Z,4.90
2022-07-28T02:11:58.092Z,5.35
2022-07-28T02:14:27.507Z,4.68
2022-07-28T02:17:11.192Z,4.90
2022-07-28T02:19:39.500Z,4.45
2022-07-28T02:22:06.900Z,4.72
2022-07-28T02:24:35.472Z,4.95
2022-07-28T02:27:13.706Z,4.03
2022-07-28T02:29:51.437Z,5.40
2022-07-28T02:32:32.178Z,5.05
2022-07-28T02:35:06.834Z,5.15
2022-07-28T02:37:41.283Z,4.93
2022-07-28T02:40:14.142Z,5.05
2022-07-28T02:42:41.925Z,4.82
2022-07-28T02:45:11.741Z,5.15
2022-07-28T02:47:44.097Z,5.00
2022-07-28T02:50:12.656Z,4.78
2022-07-28T02:52:41.803Z,4.97
2022-07-28T02:55:10.680Z,5.17
2022-07-28T02:57:40.390Z,5.05
2022-07-28T03:00:07.680Z,4.68
2022-07-28T03:02:36.748Z,5.10
2022-07-28T03:05:11.116Z,5.57
2022-07-28T03:07:41.241Z,4.55
2022-07-28T03:10:19.558Z,5.50
2022-07-28T03:13:01.074Z,5.03
2022-07-28T03:15:27.740Z,5.13
2022-07-28T03:17:54.277Z,5.28
2022-07-28T03:20:20.839Z,5.38
2022-07-28T03:22:47.386Z,5.55
2022-07-28T03:25:23.346Z,5.63
2022-07-28T03:27:52.702Z,5.60
2022-07-28T03:30:29.525Z,5.13
2022-07-28T03:32:59.839Z,5.63
2022-07-28T03:35:27.405Z,5.75
2022-07-28T03:38:10.871Z,6.18
2022-07-28T03:40:38.709Z,6.07
2022-07-28T03:43:08.307Z,5.03
2022-07-28T03:45:35.640Z,6.00
2022-07-28T03:48:02.382Z,6.40
2022-07-28T03:50:31.832Z,6.40
2022-07-28T03:53:00.223Z,5.68
2022-07-28T03:55:27.076Z,6.07
2022-07-28T03:57:53.677Z,6.32
2022-07-28T04:00:20.892Z,5.72
2022-07-28T04:02:47.686Z,6.40
2022-07-28T04:05:17.017Z,6.00
2022-07-28T04:07:44.506Z,6.35
2022-07-28T04:10:13.444Z,6.53
2022-07-28T04:12:57.222Z,5.82
2022-07-28T04:15:25.893Z,6.28
2022-07-28T04:17:53.948Z,5.60
2022-07-28T04:20:23.232Z,6.15
2022-07-28T04:22:50.542Z,5.28
2022-07-28T04:25:18.713Z,5.53
2022-07-28T04:27:45.799Z,4.72
2022-07-28T04:30:17.265Z,4.93
2022-07-28T04:32:49.097Z,4.75
2022-07-28T04:35:17.648Z,4.47
2022-07-28T04:37:45.347Z,4.20
2022-07-28T04:40:13.515Z,3.90
2022-07-28T04:42:40.870Z,4.18
2022-07-28T04:45:09.835Z,4.18
2022-07-28T04:47:37.029Z,3.95
2022-07-28T04:50:05.044Z,3.40
2022-07-28T04:52:31.634Z,3.70
2022-07-28T04:54:58.205Z,3.67
2022-07-28T04:57:28.004Z,3.58
2022-07-28T04:59:56.647Z,3.85
2022-07-28T05:02:23.421Z,3.67
2022-07-28T05:04:50.569Z,2.53
2022-07-28T05:07:17.236Z,3.20
2022-07-28T05:09:43.934Z,3.45
2022-07-28T05:12:10.917Z,2.80
2022-07-28T05:14:37.532Z,3.88
2022-07-28T05:17:04.408Z,3.13
2022-07-28T05:19:31.052Z,3.80
2022-07-28T05:21:57.546Z,3.40
2022-07-28T05:24:24.174Z,3.20
2022-07-28T05:26:50.752Z,3.35
2022-07-28T05:29:17.275Z,3.47
2022-07-28T05:31:43.869Z,4.13
2022-07-28T05:34:10.543Z,3.85
2022-07-28T05:36:38.369Z,3.10
2022-07-28T05:39:05.021Z,4.32
2022-07-28T05:41:31.540Z,4.03
2022-07-28T05:43:58.495Z,3.38
2022-07-28T05:46:25.075Z,3.92
2022-07-28T05:48:51.976Z,3.63
2022-07-28T05:51:19.209Z,3.33
2022-07-28T05:53:45.736Z,3.17
2022-07-28T05:56:14.350Z,3.03
2022-07-28T05:58:40.900Z,2.75
2022-07-28T06:01:07.532Z,2.70
2022-07-28T06:03:39.792Z,2.85
2022-07-28T06:06:16.021Z,3.20
2022-07-28T06:08:43.901Z,3.20
2022-07-28T06:11:11.710Z,2.47
2022-07-28T06:13:39.727Z,3.05
2022-07-28T06:16:11.186Z,2.85
2022-07-28T06:18:39.665Z,3.10
2022-07-28T06:21:06.341Z,2.55
2022-07-28T06:23:32.845Z,2.47
2022-07-28T06:25:59.412Z,2.33
2022-07-28T06:28:25.954Z,2.53
2022-07-28T06:30:52.487Z,2.30
2022-07-28T06:33:19.176Z,2.60
2022-07-28T06:35:48.321Z,2.00
2022-07-28T06:38:19.537Z,2.15
2022-07-28T06:40:46.403Z,2.33
2022-07-28T06:43:14.652Z,2.20
2022-07-28T06:45:41.434Z,2.13
2022-07-28T06:48:09.343Z,1.85
2022-07-28T06:50:41.511Z,1.98
2022-07-28T06:53:09.508Z,1.75
2022-07-28T06:55:37.745Z,1.83
2022-07-28T06:58:04.955Z,1.80
2022-07-28T07:00:32.108Z,1.90
2022-07-28T07:03:00.627Z,2.00
2022-07-28T07:05:32.405Z,1.10
2022-07-28T07:08:00.610Z,1.80
2022-07-28T07:10:27.384Z,1.65
2022-07-28T07:12:54.065Z,1.42
2022-07-28T07:15:21.944Z,1.95
2022-07-28T07:17:48.710Z,1.27
2022-07-28T07:20:18.162Z,1.70
2022-07-28T07:22:46.364Z,1.50
2022-07-28T07:25:16.560Z,1.73
2022-07-28T07:27:44.079Z,1.80
2022-07-28T07:30:12.865Z,1.52
2022-07-28T07:32:40.404Z,1.75
2022-07-28T07:35:07.353Z,1.40
2022-07-28T07:37:34.025Z,1.23
2022-07-28T07:40:01.460Z,0.98
2022-07-28T07:42:28.130Z,1.50
2022-07-28T07:44:55.094Z,1.40
2022-07-28T07:47:21.636Z,1.38
2022-07-28T07:49:49.478Z,1.80
2022-07-28T07:52:16.055Z,1.60
2022-07-28T07:54:43.017Z,1.45
2022-07-28T07:57:10.431Z,1.42
2022-07-28T07:59:37.068Z,1.55
2022-07-28T08:02:04.291Z,1.65
2022-07-28T08:04:30.932Z,1.20
2022-07-28T08:06:57.546Z,1.80
2022-07-28T08:09:24.228Z,1.50
2022-07-28T08:11:52.267Z,1.45
2022-07-28T08:14:18.991Z,1.98
2022-07-28T08:16:45.594Z,1.88
2022-07-28T08:19:12.473Z,1.63
2022-07-28T08:21:40.509Z,2.03
2022-07-28T08:24:07.491Z,2.20
2022-07-28T08:26:35.688Z,1.95
2022-07-28T08:29:02.231Z,1.65
2022-07-28T08:31:28.837Z,1.80
2022-07-28T08:33:58.414Z,1.20
2022-07-28T08:36:25.118Z,1.55
2022-07-28T08:38:51.948Z,1.75
2022-07-28T08:41:48.572Z,1.80
2022-07-28T08:44:18.754Z,1.63
2022-07-28T08:46:48.721Z,1.42
2022-07-28T08:49:16.110Z,1.63
2022-07-28T08:51:49.686Z,1.60
2022-07-28T08:54:20.305Z,1.65
2022-07-28T08:56:48.030Z,1.42
2022-07-28T08:59:15.340Z,2.10
2022-07-28T09:01:42.315Z,1.77
2022-07-28T09:04:09.328Z,1.50
2022-07-28T09:06:42.012Z,1.50
2022-07-28T09:09:09.872Z,1.70
2022-07-28T09:11:37.641Z,1.45
2022-07-28T09:14:05.627Z,1.55
2022-07-28T09:16:32.445Z,1.05
2022-07-28T09:18:59.100Z,1.50
2022-07-28T09:21:25.675Z,1.45
2022-07-28T09:23:53.307Z,1.38
2022-07-28T09:26:19.987Z,1.33
2022-07-28T09:28:55.435Z,1.38
2022-07-28T09:31:23.365Z,1.27
2022-07-28T09:34:08.238Z,1.30
2022-07-28T09:36:40.736Z,1.20
2022-07-28T09:39:07.720Z,1.52
2022-07-28T09:41:55.183Z,1.40
2022-07-28T09:44:23.462Z,1.67
2022-07-28T09:46:51.064Z,1.60
2022-07-28T09:49:17.998Z,1.42
2022-07-28T09:52:05.588Z,1.70
2022-07-28T09:54:33.559Z,1.23
2022-07-28T09:57:01.948Z,1.20
2022-07-28T09:59:44.170Z,1.45
2022-07-28T10:02:27.164Z,1.45
2022-07-28T10:04:54.370Z,1.67
2022-07-28T10:07:21.771Z,1.50
2022-07-28T10:10:20.220Z,1.55
2022-07-28T10:12:46.989Z,1.65
2022-07-28T10:15:34.867Z,1.40
2022-07-28T10:18:01.893Z,1.33
2022-07-28T10:20:29.032Z,1.67
2022-07-28T10:23:02.622Z,1.40
2022-07-28T10:25:32.872Z,1.80
2022-07-28T10:28:02.398Z,1.60
2022-07-28T10:30:31.650Z,1.58
2022-07-28T10:32:59.838Z,1.45
2022-07-28T10:35:28.047Z,1.45
2022-07-28T10:37:59.495Z,1.63
2022-07-28T10:40:29.835Z,1.75
2022-07-28T10:42:56.754Z,1.48
2022-07-28T10:45:32.653Z,1.50
2022-07-28T10:48:09.183Z,1.30
2022-07-28T10:50:39.005Z,1.33
2022-07-28T10:53:07.954Z,1.38
2022-07-28T10:55:38.368Z,1.55
2022-07-28T10:59:06.161Z,1.52
2022-07-28T11:01:50.168Z,1.60
2022-07-28T11:04:41.693Z,1.95
2022-07-28T11:07:13.079Z,1.40
2022-07-28T11:09:40.121Z,1.50
2022-07-28T11:12:09.755Z,1.25
2022-07-28T11:14:39.495Z,1.15
2022-07-28T11:17:10.444Z,2.00
2022-07-28T11:22:34.305Z,1.70
2022-07-28T11:25:20.846Z,1.50
2022-07-28T11:27:50.288Z,1.35
2022-07-28T11:30:21.250Z,1.33
2022-07-28T11:32:50.760Z,1.50
2022-07-28T11:35:19.400Z,1.10
2022-07-28T11:38:01.116Z,1.23
2022-07-28T11:40:35.096Z,1.45
2022-07-28T11:43:33.999Z,1.65
2022-07-28T11:46:07.603Z,1.20
2022-07-28T11:48:37.704Z,1.20
2022-07-28T11:51:04.317Z,1.30
2022-07-28T11:53:49.911Z,1.25
2022-07-28T11:56:24.507Z,1.55
2022-07-28T11:58:59.622Z,1.38
2022-07-28T12:01:27.098Z,1.35
2022-07-28T12:03:56.820Z,1.67
2022-07-28T12:06:36.693Z,1.20
2022-07-28T12:09:06.210Z,1.20
2022-07-28T12:11:38.042Z,1.40
2022-07-28T12:14:09.500Z,1.20
2022-07-28T12:16:39.848Z,1.33
2022-07-28T12:19:08.017Z,1.20
2022-07-28T12:21:46.147Z,1.25
2022-07-28T12:24:21.037Z,1.52
2022-07-28T12:26:49.931Z,1.23
2022-07-28T12:29:17.788Z,1.20
2022-07-28T12:32:12.944Z,1.42
2022-07-28T12:34:44.374Z,1.40
2022-07-28T12:37:14.011Z,1.20
2022-07-28T12:39:42.957Z,1.25
2022-07-28T12:42:11.477Z,1.33
2022-07-28T12:44:43.714Z,0.90
2022-07-28T12:47:15.971Z,1.40
2022-07-28T12:49:44.656Z,1.30
2022-07-28T12:52:22.912Z,1.20
2022-07-28T12:54:53.716Z,1.17
2022-07-28T12:57:51.622Z,1.23
2022-07-28T13:00:24.646Z,1.63
2022-07-28T13:02:53.433Z,1.02
2022-07-28T13:05:56.082Z,1.25
2022-07-28T13:08:24.246Z,1.13
2022-07-28T13:10:57.195Z,1.48
2022-07-28T13:13:25.289Z,1.10
2022-07-28T13:16:14.670Z,1.40
2022-07-28T13:18:50.146Z,1.40
2022-07-28T13:21:36.610Z,1.23
2022-07-28T13:24:03.696Z,1.40
2022-07-28T13:26:31.784Z,1.30
2022-07-28T13:29:02.369Z,1.60
2022-07-28T13:31:32.255Z,1.45
2022-07-28T13:33:59.290Z,1.88
2022-07-28T13:36:25.814Z,1.17
2022-07-28T13:38:55.214Z,1.67
2022-07-28T13:41:21.874Z,1.40
2022-07-28T13:43:49.135Z,1.40
2022-07-28T13:46:20.886Z,1.58
2022-07-28T13:48:57.654Z,1.40
2022-07-28T13:51:24.757Z,1.35
2022-07-28T13:53:51.736Z,1.65
2022-07-28T13:56:36.787Z,1.42
2022-07-28T13:59:08.661Z,1.65
2022-07-28T14:01:36.284Z,2.28
2022-07-28T14:04:04.436Z,1.80
2022-07-28T14:06:30.983Z,1.77
2022-07-28T14:08:57.769Z,1.95
2022-07-28T14:11:24.744Z,1.50
2022-07-28T14:13:54.086Z,1.73
2022-07-28T14:16:22.047Z,1.33
2022-07-28T14:18:49.449Z,1.85
2022-07-28T14:21:16.945Z,1.75
2022-07-28T14:23:45.804Z,1.73
2022-07-28T14:26:35.053Z,1.63
2022-07-28T14:29:01.960Z,1.20
2022-07-28T14:31:29.580Z,1.15
2022-07-28T14:33:56.805Z,2.13
2022-07-28T14:36:23.332Z,1.83
2022-07-28T14:38:53.597Z,1.35
2022-07-28T14:41:20.604Z,2.00
2022-07-28T14:43:47.186Z,1.67
2022-07-28T14:46:20.660Z,1.38
2022-07-28T14:48:48.027Z,1.85
2022-07-28T14:51:14.633Z,1.35
2022-07-28T14:53:43.442Z,1.83
2022-07-28T14:56:18.217Z,1.77
2022-07-28T14:58:44.822Z,1.60
2022-07-28T15:01:11.422Z,1.73
2022-07-28T15:03:38.033Z,2.00
2022-07-28T15:06:10.222Z,1.67
2022-07-28T15:08:36.743Z,1.52
2022-07-28T15:11:03.417Z,1.85
2022-07-28T15:13:29.970Z,1.90
2022-07-28T15:15:57.039Z,1.92
2022-07-28T15:18:24.506Z,1.85
2022-07-28T15:20:51.335Z,1.65
2022-07-28T15:23:17.948Z,1.63
2022-07-28T15:25:46.440Z,2.13
2022-07-28T15:28:17.524Z,1.40
2022-07-28T15:30:51.656Z,1.80
2022-07-28T15:33:20.431Z,2.40
2022-07-28T15:35:58.113Z,2.00
2022-07-28T15:38:27.742Z,2.05
2022-07-28T15:40:55.016Z,1.85
2022-07-28T15:43:23.619Z,2.08
2022-07-28T15:45:50.696Z,1.67
2022-07-28T15:48:17.289Z,1.73
2022-07-28T15:50:45.504Z,1.48
2022-07-28T15:53:12.076Z,1.65
2022-07-28T15:55:38.876Z,1.90
2022-07-28T15:58:05.501Z,1.48
2022-07-28T16:00:33.824Z,1.90
2022-07-28T16:03:01.483Z,1.67
2022-07-28T16:05:28.677Z,2.00
2022-07-28T16:07:58.366Z,1.95
2022-07-28T16:10:27.115Z,1.77
2022-07-28T16:12:55.924Z,1.70
2022-07-28T16:15:24.969Z,2.25
2022-07-28T16:17:51.492Z,2.00
2022-07-28T16:20:18.052Z,2.15
2022-07-28T16:22:44.628Z,1.73
2022-07-28T16:25:16.520Z,1.67
2022-07-28T16:27:44.613Z,1.23
2022-07-28T16:30:11.631Z,2.20
2022-07-28T16:32:39.343Z,2.33
2022-07-28T16:35:07.272Z,2.05
2022-07-28T16:37:35.512Z,2.03
2022-07-28T16:40:04.711Z,2.17
2022-07-28T16:42:32.156Z,1.95
2022-07-28T16:44:58.951Z,1.70
2022-07-28T16:47:25.897Z,1.80
2022-07-28T16:49:52.389Z,2.03
2022-07-28T16:52:20.911Z,1.92
2022-07-28T16:54:47.764Z,2.63
2022-07-28T16:57:14.846Z,1.90
2022-07-28T16:59:48.116Z,1.50
2022-07-28T17:02:15.491Z,2.38
2022-07-28T17:04:42.470Z,2.03
2022-07-28T17:07:13.473Z,2.03
2022-07-28T17:09:41.523Z,2.20
2022-07-28T17:12:09.248Z,2.25
2022-07-28T17:14:40.854Z,2.10
2022-07-28T17:17:07.463Z,2.35
2022-07-28T17:19:33.972Z,1.75
2022-07-28T17:22:01.941Z,2.08
2022-07-28T17:24:28.524Z,2.03
2022-07-28T17:29:42.695Z,1.70
2022-07-28T17:32:09.532Z,2.40
2022-07-28T17:34:37.551Z,2.50
2022-07-28T17:37:05.185Z,1.90
2022-07-28T17:39:32.210Z,1.77
2022-07-28T17:41:58.962Z,1.90
2022-07-28T17:44:25.759Z,2.08
2022-07-28T17:46:52.343Z,2.17
2022-07-28T17:49:19.080Z,2.53
2022-07-28T17:51:45.680Z,2.17
2022-07-28T17:54:15.548Z,2.17
2022-07-28T17:56:42.557Z,2.33
2022-07-28T17:59:10.470Z,2.28
2022-07-28T18:01:38.967Z,2.15
2022-07-28T18:04:08.958Z,2.60
2022-07-28T18:06:37.182Z,2.10
2022-07-28T18:09:07.896Z,2.05
2022-07-28T18:11:57.610Z,2.13
2022-07-28T18:14:27.168Z,2.75
2022-07-28T18:16:53.786Z,2.70
2022-07-28T18:19:20.335Z,3.05
2022-07-28T18:21:46.812Z,2.50
2022-07-28T18:24:13.684Z,2.30
2022-07-28T18:26:40.772Z,2.70
2022-07-28T18:29:07.742Z,2.35
2022-07-28T18:31:34.295Z,2.83
2022-07-28T18:34:00.898Z,2.50
2022-07-28T18:36:27.409Z,3.15
2022-07-28T18:38:53.967Z,2.40
2022-07-28T18:41:20.501Z,2.70
2022-07-28T18:43:47.012Z,2.35
2022-07-28T18:46:13.892Z,2.75
2022-07-28T18:48:40.500Z,2.78
2022-07-28T18:51:07.222Z,3.08
2022-07-28T18:53:33.836Z,2.95
2022-07-28T18:56:00.361Z,2.42
2022-07-28T18:58:26.877Z,3.00
2022-07-28T19:00:54.654Z,2.30
2022-07-28T19:03:21.298Z,2.45
2022-07-28T19:05:47.871Z,2.80
2022-07-28T19:08:14.449Z,2.90
2022-07-28T19:10:40.964Z,3.05
2022-07-28T19:13:12.344Z,3.03
2022-07-28T19:15:40.853Z,2.72
2022-07-28T19:18:09.869Z,2.60
2022-07-28T19:23:05.458Z,2.60
2022-07-28T19:25:32.433Z,3.05
2022-07-28T19:27:59.067Z,3.38
2022-07-28T19:30:25.655Z,2.92
2022-07-28T19:32:52.202Z,2.95
2022-07-28T19:35:18.973Z,2.70
2022-07-28T19:37:45.601Z,2.20
2022-07-28T19:40:13.314Z,2.75
2022-07-28T19:42:39.902Z,2.95
2022-07-28T19:45:07.296Z,2.78
2022-07-28T19:47:36.904Z,3.85
2022-07-28T19:50:05.175Z,3.75
2022-07-28T19:52:31.966Z,3.42
2022-07-28T19:54:58.499Z,2.92
2022-07-28T19:57:26.706Z,3.63
2022-07-28T19:59:53.257Z,3.30
2022-07-28T20:02:19.851Z,3.58
2022-07-28T20:04:46.480Z,3.00
2022-07-28T20:07:12.974Z,3.95
2022-07-28T20:09:39.836Z,3.47
2022-07-28T20:12:07.820Z,3.38
2022-07-28T20:14:36.181Z,3.95
2022-07-28T20:17:02.850Z,3.50
2022-07-28T20:19:30.107Z,3.40
2022-07-28T20:21:57.253Z,2.95
2022-07-28T20:24:24.043Z,3.70
2022-07-28T20:26:50.568Z,2.72
2022-07-28T20:29:17.142Z,3.75
2022-07-28T20:31:43.909Z,4.07
2022-07-28T20:34:12.977Z,2.90
2022-07-28T20:36:39.719Z,3.38
2022-07-28T20:39:27.400Z,3.55
2022-07-28T20:41:52.821Z,3.30
2022-07-28T20:44:28.719Z,3.15
2022-07-28T20:46:58.621Z,3.35
2022-07-28T20:49:25.286Z,3.15
2022-07-28T20:51:51.865Z,3.28
2022-07-28T20:54:19.002Z,3.40
2022-07-28T20:56:45.600Z,3.42
2022-07-28T20:59:12.184Z,3.22
2022-07-28T21:01:39.193Z,3.47
2022-07-28T21:04:05.979Z,3.67
2022-07-28T21:06:37.912Z,3.40
2022-07-28T21:09:05.172Z,3.40
2022-07-28T21:11:34.957Z,3.67
2022-07-28T21:14:02.074Z,4.03
2022-07-28T21:16:29.296Z,2.72
2022-07-28T21:18:55.987Z,3.78
2022-07-28T21:21:22.897Z,3.42
2022-07-28T21:23:49.791Z,3.60
2022-07-28T21:26:16.990Z,3.42
2022-07-28T21:29:02.129Z,4.07
2022-07-28T21:31:28.669Z,4.00
2022-07-28T21:33:55.381Z,3.05
2022-07-28T21:36:22.046Z,3.65
2022-07-28T21:38:49.241Z,3.78
2022-07-28T21:41:16.334Z,3.80
2022-07-28T21:43:42.818Z,3.65
2022-07-28T21:46:09.494Z,3.22
2022-07-28T21:48:36.157Z,4.10
2022-07-28T21:51:02.798Z,3.67
2022-07-28T21:53:29.359Z,3.40
2022-07-28T21:55:57.177Z,3.05
2022-07-28T21:58:24.382Z,3.05
2022-07-28T22:00:50.998Z,4.32
2022-07-28T22:03:17.543Z,3.65
2022-07-28T22:05:44.127Z,3.60
2022-07-28T22:08:10.862Z,4.05
2022-07-28T22:10:37.369Z,3.90
2022-07-28T22:13:04.021Z,4.38
2022-07-28T22:15:30.563Z,3.95
2022-07-28T22:17:57.137Z,3.42
2022-07-28T22:20:23.682Z,3.88
2022-07-28T22:22:50.268Z,3.60
2022-07-28T22:25:16.812Z,4.20
2022-07-28T22:27:43.330Z,3.75
2022-07-28T22:30:10.151Z,4.07
2022-07-28T22:32:36.764Z,3.95
2022-07-28T22:35:04.489Z,4.72
2022-07-28T22:37:31.071Z,4.78
2022-07-28T22:39:57.622Z,4.10
2022-07-28T22:42:24.175Z,4.13
2022-07-28T22:44:50.699Z,3.53
2022-07-28T22:47:17.311Z,4.25
2022-07-28T22:49:43.892Z,4.22
2022-07-28T22:52:10.418Z,3.95
2022-07-28T22:54:40.393Z,4.05
2022-07-28T22:57:07.231Z,4.10
2022-07-28T22:59:35.047Z,4.43
2022-07-28T23:02:06.775Z,4.32
2022-07-28T23:04:33.573Z,3.88
2022-07-28T23:07:00.822Z,3.78
2022-07-28T23:09:27.532Z,4.00
2022-07-28T23:11:56.484Z,4.30
2022-07-28T23:14:25.296Z,3.87
2022-07-28T23:16:51.798Z,3.75
2022-07-28T23:19:18.724Z,3.20
2022-07-28T23:21:45.450Z,3.20
2022-07-28T23:24:12.846Z,3.90
2022-07-28T23:26:39.657Z,3.08
2022-07-28T23:29:06.218Z,3.25
2022-07-28T23:31:32.850Z,3.40
2022-07-28T23:33:59.658Z,3.20
2022-07-28T23:36:27.742Z,3.00
2022-07-28T23:38:57.525Z,2.85
2022-07-28T23:41:24.429Z,3.20
2022-07-28T23:43:52.290Z,2.30
2022-07-28T23:46:19.491Z,2.90
2022-07-28T23:48:47.710Z,3.17
2022-07-28T23:51:21.528Z,3.35
2022-07-28T23:53:54.355Z,2.53
2022-07-28T23:56:28.395Z,2.50
2022-07-28T23:58:54.975Z,3.00
